Time;durP1;ratioP1;P1;durP2;ratioP2;P2;SDS_P1;SDS_P2;PMS_P1;PMS_P2;Temp;Humidity;BMP_temperature;BMP_pressure;BME280_temperature;BME280_humidity;BME280_pressure;Samples;Min_cycle;Max_cycle;Signal;HPM_P1;HPM_P2
2023/08/24 00:00:19;;;;;;;29.27;27.30;;;;;;;;;;5080660;28;20428;-85
2023/08/24 00:02:46;;;;;;;29.47;27.57;;;;;;;;;;5082933;28;20526;-85
2023/08/24 00:05:13;;;;;;;31.00;28.67;;;;;;;;;;5082827;28;20453;-85
2023/08/24 00:07:41;;;;;;;31.53;29.53;;;;;;;;;;5081079;28;20454;-84
2023/08/24 00:10:08;;;;;;;29.87;27.97;;;;;;;;;;5096666;28;20475;-84
2023/08/24 00:12:36;;;;;;;32.83;30.47;;;;;;;;;;5097687;28;20856;-83
2023/08/24 00:15:05;;;;;;;31.53;29.40;;;;;;;;;;5089948;28;20483;-85
2023/08/24 00:17:32;;;;;;;31.97;29.90;;;;;;;;;;5091221;28;20445;-84
2023/08/24 00:19:59;;;;;;;31.83;29.93;;;;;;;;;;5099420;27;20496;-84
2023/08/24 00:22:26;;;;;;;32.90;30.67;;;;;;;;;;5101111;28;20835;-84
2023/08/24 00:24:53;;;;;;;32.73;30.37;;;;;;;;;;5101331;28;20441;-85
2023/08/24 00:27:20;;;;;;;34.47;32.10;;;;;;;;;;5099070;28;20506;-84
2023/08/24 00:29:47;;;;;;;31.83;29.90;;;;;;;;;;5080467;28;20431;-84
2023/08/24 00:32:17;;;;;;;33.83;31.63;;;;;;;;;;5080773;28;20505;-83
2023/08/24 00:34:44;;;;;;;32.13;30.13;;;;;;;;;;5081219;28;20450;-84
2023/08/24 00:37:11;;;;;;;32.60;30.20;;;;;;;;;;5093884;28;20476;-84
2023/08/24 00:39:39;;;;;;;33.00;30.90;;;;;;;;;;5101100;28;20449;-84
2023/08/24 00:42:06;;;;;;;32.67;30.43;;;;;;;;;;5081609;28;20466;-83
2023/08/24 00:44:33;;;;;;;32.77;30.73;;;;;;;;;;5080787;28;20429;-83
2023/08/24 00:47:01;;;;;;;35.20;32.87;;;;;;;;;;5080204;28;20465;-83
2023/08/24 00:49:29;;;;;;;33.73;31.63;;;;;;;;;;5086336;28;20426;-84
2023/08/24 00:51:56;;;;;;;33.83;31.60;;;;;;;;;;5100578;28;20489;-83
2023/08/24 00:54:24;;;;;;;35.43;32.80;;;;;;;;;;5101220;28;20441;-84
2023/08/24 00:56:51;;;;;;;31.93;29.73;;;;;;;;;;5101173;28;20957;-85
2023/08/24 00:59:18;;;;;;;33.37;31.30;;;;;;;;;;5100702;28;20532;-84
2023/08/24 01:01:46;;;;;;;31.23;29.43;;;;;;;;;;5087407;28;20789;-85
2023/08/24 01:04:14;;;;;;;31.97;29.97;;;;;;;;;;5101165;28;20463;-85
2023/08/24 01:06:42;;;;;;;33.37;30.97;;;;;;;;;;5097065;28;20849;-85
2023/08/24 01:09:09;;;;;;;31.83;29.73;;;;;;;;;;5081100;28;20454;-84
2023/08/24 01:11:43;;;;;;;30.70;28.90;;;;;;;;;;5080545;28;20470;-85
2023/08/24 01:14:14;;;;;;;31.77;29.57;;;;;;;;;;5080117;28;20544;-83
2023/08/24 01:16:44;;;;;;;31.80;29.83;;;;;;;;;;5080546;28;20442;-83
2023/08/24 01:19:19;;;;;;;30.43;28.63;;;;;;;;;;5080683;28;20465;-84
2023/08/24 01:21:48;;;;;;;30.13;28.27;;;;;;;;;;5079888;28;20420;-83
2023/08/24 01:24:18;;;;;;;32.53;30.10;;;;;;;;;;5080395;28;20412;-84
2023/08/24 01:26:48;;;;;;;30.87;28.87;;;;;;;;;;5080314;28;21082;-83
2023/08/24 01:29:16;;;;;;;30.70;28.80;;;;;;;;;;5080462;28;20448;-85
2023/08/24 01:31:43;;;;;;;28.97;27.20;;;;;;;;;;5079486;28;20516;-84
2023/08/24 01:34:10;;;;;;;29.97;27.87;;;;;;;;;;5079975;28;21032;-83
2023/08/24 01:36:37;;;;;;;28.77;26.77;;;;;;;;;;5079187;28;20438;-85
2023/08/24 01:39:09;;;;;;;27.90;26.20;;;;;;;;;;5079632;28;20449;-84
2023/08/24 01:41:38;;;;;;;28.70;26.80;;;;;;;;;;5080279;28;20439;-83
2023/08/24 01:44:08;;;;;;;29.07;26.77;;;;;;;;;;5080108;28;21053;-83
2023/08/24 01:46:38;;;;;;;28.10;26.50;;;;;;;;;;5078156;28;20415;-84
2023/08/24 01:49:05;;;;;;;27.43;25.73;;;;;;;;;;5080329;28;20459;-83
2023/08/24 01:51:33;;;;;;;28.50;26.60;;;;;;;;;;5079099;28;20485;-83
2023/08/24 01:54:00;;;;;;;27.43;25.70;;;;;;;;;;5080118;28;20469;-84
2023/08/24 01:56:27;;;;;;;26.40;24.47;;;;;;;;;;5080031;28;20464;-84
2023/08/24 01:58:54;;;;;;;26.63;24.97;;;;;;;;;;5079655;28;20416;-84
2023/08/24 02:01:23;;;;;;;25.83;24.20;;;;;;;;;;5079240;28;20465;-83
2023/08/24 02:03:50;;;;;;;24.90;23.27;;;;;;;;;;5079218;28;20476;-83
2023/08/24 02:06:17;;;;;;;24.37;22.97;;;;;;;;;;5079607;28;20446;-83
2023/08/24 02:08:44;;;;;;;25.07;23.27;;;;;;;;;;5079017;28;20446;-84
2023/08/24 02:11:11;;;;;;;23.27;21.97;;;;;;;;;;5079514;28;20527;-83
2023/08/24 02:13:39;;;;;;;24.27;22.77;;;;;;;;;;5079422;28;20470;-83
2023/08/24 02:16:07;;;;;;;23.57;21.60;;;;;;;;;;5080720;28;20449;-84
2023/08/24 02:18:35;;;;;;;23.20;21.87;;;;;;;;;;5083352;28;20450;-84
2023/08/24 02:21:08;;;;;;;22.53;21.23;;;;;;;;;;5082742;28;20453;-84
2023/08/24 02:23:35;;;;;;;24.00;22.50;;;;;;;;;;5083250;28;20466;-83
2023/08/24 02:26:02;;;;;;;24.03;22.53;;;;;;;;;;5082299;28;20473;-84
2023/08/24 02:28:30;;;;;;;23.73;22.43;;;;;;;;;;5082231;28;20858;-83
2023/08/24 02:31:01;;;;;;;22.37;21.17;;;;;;;;;;5077144;28;20453;-83
2023/08/24 02:33:28;;;;;;;22.57;21.13;;;;;;;;;;5078980;28;20492;-83
2023/08/24 02:35:57;;;;;;;22.90;21.60;;;;;;;;;;5080064;28;20538;-83
2023/08/24 02:38:25;;;;;;;22.83;21.43;;;;;;;;;;5081071;28;20481;-84
2023/08/24 02:41:01;;;;;;;22.30;21.10;;;;;;;;;;5081391;28;20473;-83
2023/08/24 02:43:29;;;;;;;22.50;21.10;;;;;;;;;;5081198;28;20953;-83
2023/08/24 02:46:01;;;;;;;22.73;21.20;;;;;;;;;;5080196;28;20438;-84
2023/08/24 02:48:28;;;;;;;22.20;20.83;;;;;;;;;;5080855;28;20465;-83
2023/08/24 02:50:55;;;;;;;23.10;21.50;;;;;;;;;;5081710;28;20449;-84
2023/08/24 02:53:24;;;;;;;22.73;21.20;;;;;;;;;;5082654;28;20490;-84
2023/08/24 02:55:51;;;;;;;21.93;20.73;;;;;;;;;;5082565;28;20454;-84
2023/08/24 02:58:18;;;;;;;22.10;20.50;;;;;;;;;;5081885;28;20465;-84
2023/08/24 03:00:46;;;;;;;22.00;20.60;;;;;;;;;;5082005;28;20432;-84
2023/08/24 03:03:13;;;;;;;21.90;20.30;;;;;;;;;;5082256;28;20462;-83
2023/08/24 03:05:41;;;;;;;21.80;20.50;;;;;;;;;;5082706;28;20776;-84
2023/08/24 03:08:08;;;;;;;22.17;20.97;;;;;;;;;;5082624;28;21017;-84
2023/08/24 03:10:37;;;;;;;21.90;20.50;;;;;;;;;;5081174;28;20456;-84
2023/08/24 03:13:04;;;;;;;22.20;20.90;;;;;;;;;;5081869;28;20497;-84
2023/08/24 03:15:32;;;;;;;21.23;20.10;;;;;;;;;;5081624;28;20447;-83
2023/08/24 03:17:59;;;;;;;21.77;20.40;;;;;;;;;;5082525;28;20852;-83
2023/08/24 03:20:26;;;;;;;21.90;20.60;;;;;;;;;;5081813;28;20412;-83
2023/08/24 03:22:53;;;;;;;22.53;21.00;;;;;;;;;;5081810;28;20452;-84
2023/08/24 03:25:21;;;;;;;21.60;20.30;;;;;;;;;;5082250;28;20429;-83
2023/08/24 03:27:50;;;;;;;21.90;20.60;;;;;;;;;;5081657;28;20481;-83
2023/08/24 03:30:17;;;;;;;21.87;20.50;;;;;;;;;;5079945;28;20897;-84
2023/08/24 03:32:44;;;;;;;21.53;20.33;;;;;;;;;;5081314;28;20493;-83
2023/08/24 03:35:11;;;;;;;23.33;21.83;;;;;;;;;;5080975;28;20468;-84
2023/08/24 03:37:38;;;;;;;22.10;20.70;;;;;;;;;;5081330;28;20500;-83
2023/08/24 03:40:06;;;;;;;22.30;21.00;;;;;;;;;;5080239;28;20420;-84
2023/08/24 03:42:33;;;;;;;21.60;20.40;;;;;;;;;;5080166;28;20448;-83
2023/08/24 03:45:03;;;;;;;21.27;19.97;;;;;;;;;;5080459;28;20444;-84
2023/08/24 03:47:30;;;;;;;21.27;20.07;;;;;;;;;;5081163;28;20545;-84
2023/08/24 03:49:57;;;;;;;22.30;20.27;;;;;;;;;;5080477;28;20789;-84
2023/08/24 03:52:24;;;;;;;21.40;20.17;;;;;;;;;;5080715;28;20471;-84
2023/08/24 03:54:51;;;;;;;21.53;20.20;;;;;;;;;;5080652;28;20424;-83
2023/08/24 03:57:18;;;;;;;34.57;31.93;;;;;;;;;;5080359;28;20429;-84
2023/08/24 03:59:45;;;;;;;22.03;20.77;;;;;;;;;;5080616;28;20434;-85
2023/08/24 04:02:13;;;;;;;22.77;21.27;;;;;;;;;;5080113;28;20469;-84
2023/08/24 04:04:40;;;;;;;21.40;20.20;;;;;;;;;;5080737;28;20428;-84
2023/08/24 04:07:07;;;;;;;22.83;21.43;;;;;;;;;;5080807;28;20449;-83
2023/08/24 04:09:34;;;;;;;22.27;20.90;;;;;;;;;;5080569;28;20438;-83
2023/08/24 04:12:02;;;;;;;22.30;20.80;;;;;;;;;;5079642;28;20456;-84
2023/08/24 04:14:30;;;;;;;22.03;20.47;;;;;;;;;;5080107;28;20877;-82
2023/08/24 04:16:57;;;;;;;23.13;21.47;;;;;;;;;;5079888;28;20442;-83
2023/08/24 04:19:25;;;;;;;21.80;20.47;;;;;;;;;;5086414;28;20437;-83
2023/08/24 04:21:52;;;;;;;21.57;20.37;;;;;;;;;;5079418;28;20475;-83
2023/08/24 04:24:19;;;;;;;22.40;20.87;;;;;;;;;;5079741;28;20453;-83
2023/08/24 04:26:47;;;;;;;23.20;21.60;;;;;;;;;;5079501;28;20433;-84
2023/08/24 04:29:15;;;;;;;23.47;21.87;;;;;;;;;;5094091;28;20450;-84
2023/08/24 04:31:42;;;;;;;22.57;21.27;;;;;;;;;;5086373;28;20428;-84
2023/08/24 04:34:11;;;;;;;23.13;21.57;;;;;;;;;;5091901;28;20986;-86
2023/08/24 04:36:39;;;;;;;23.40;22.00;;;;;;;;;;5095006;28;20482;-89
2023/08/24 04:39:07;;;;;;;22.50;21.20;;;;;;;;;;5093179;28;20445;-89
2023/08/24 04:41:35;;;;;;;23.30;21.87;;;;;;;;;;5094260;28;20414;-89
2023/08/24 04:44:02;;;;;;;22.73;20.90;;;;;;;;;;5093838;28;20476;-89
2023/08/24 04:46:29;;;;;;;22.20;21.00;;;;;;;;;;5094252;28;20805;-89
2023/08/24 04:48:56;;;;;;;21.67;20.27;;;;;;;;;;5094646;28;20437;-89
2023/08/24 04:51:23;;;;;;;21.90;20.70;;;;;;;;;;5094143;28;20419;-89
2023/08/24 04:53:52;;;;;;;22.07;20.77;;;;;;;;;;5097997;28;20511;-82
2023/08/24 04:56:19;;;;;;;22.40;21.20;;;;;;;;;;5099817;28;20448;-84
2023/08/24 04:58:53;;;;;;;22.17;20.67;;;;;;;;;;5099167;28;20815;-86
2023/08/24 05:01:20;;;;;;;22.43;21.10;;;;;;;;;;5093523;28;20427;-89
2023/08/24 05:03:48;;;;;;;21.10;19.90;;;;;;;;;;5093425;28;20458;-89
2023/08/24 05:06:15;;;;;;;22.40;21.00;;;;;;;;;;5093822;28;20456;-90
2023/08/24 05:08:42;;;;;;;22.40;21.10;;;;;;;;;;5093983;28;20502;-89
2023/08/24 05:11:14;;;;;;;22.10;20.80;;;;;;;;;;5093583;28;20419;-89
2023/08/24 05:13:41;;;;;;;22.60;20.90;;;;;;;;;;5094013;28;20481;-89
2023/08/24 05:16:08;;;;;;;24.83;23.13;;;;;;;;;;5094316;28;20456;-89
2023/08/24 05:18:36;;;;;;;23.47;21.90;;;;;;;;;;5094359;28;20449;-90
2023/08/24 05:21:04;;;;;;;24.07;22.57;;;;;;;;;;5093504;28;20466;-89
2023/08/24 05:23:31;;;;;;;26.33;24.70;;;;;;;;;;5094091;28;20443;-88
2023/08/24 05:25:58;;;;;;;25.40;23.80;;;;;;;;;;5094178;28;20430;-89
2023/08/24 05:28:26;;;;;;;25.13;23.43;;;;;;;;;;5094117;28;20791;-89
2023/08/24 05:30:54;;;;;;;25.47;23.73;;;;;;;;;;5093568;28;20440;-89
2023/08/24 05:33:21;;;;;;;27.73;25.80;;;;;;;;;;5093635;28;20462;-89
2023/08/24 05:35:48;;;;;;;27.97;26.13;;;;;;;;;;5093543;28;20437;-89
2023/08/24 05:38:20;;;;;;;27.73;25.90;;;;;;;;;;5093052;28;20412;-90
2023/08/24 05:40:49;;;;;;;27.10;25.47;;;;;;;;;;5093660;28;20444;-89
2023/08/24 05:43:16;;;;;;;28.27;25.97;;;;;;;;;;5094049;28;20423;-89
2023/08/24 05:45:46;;;;;;;28.00;26.30;;;;;;;;;;5094158;28;20420;-89
2023/08/24 05:48:13;;;;;;;30.07;28.07;;;;;;;;;;5093904;28;20524;-89
2023/08/24 05:50:44;;;;;;;32.87;30.40;;;;;;;;;;5094065;28;20455;-89
2023/08/24 05:53:11;;;;;;;32.17;29.90;;;;;;;;;;5097807;28;20459;-88
2023/08/24 05:55:38;;;;;;;34.57;32.00;;;;;;;;;;5097802;28;20774;-89
2023/08/24 05:58:05;;;;;;;35.70;33.07;;;;;;;;;;5097791;28;20804;-89
2023/08/24 06:00:32;;;;;;;37.00;34.50;;;;;;;;;;5097106;28;20802;-89
2023/08/24 06:03:01;;;;;;;37.63;35.13;;;;;;;;;;5097651;28;20436;-89
2023/08/24 06:05:28;;;;;;;37.43;34.83;;;;;;;;;;5097741;28;20449;-89
2023/08/24 06:07:55;;;;;;;39.43;36.53;;;;;;;;;;5097253;28;20423;-89
2023/08/24 06:10:22;;;;;;;38.00;35.20;;;;;;;;;;5096649;28;20500;-89
2023/08/24 06:12:49;;;;;;;40.53;37.53;;;;;;;;;;5096702;28;20984;-88
2023/08/24 06:15:19;;;;;;;41.33;38.03;;;;;;;;;;5096929;28;20424;-89
2023/08/24 06:17:47;;;;;;;41.37;38.37;;;;;;;;;;5097411;28;20506;-89
2023/08/24 06:20:16;;;;;;;41.97;38.77;;;;;;;;;;5096741;28;20519;-89
2023/08/24 06:22:43;;;;;;;41.80;38.40;;;;;;;;;;5096773;28;20464;-89
2023/08/24 06:25:10;;;;;;;41.47;38.57;;;;;;;;;;5081528;28;20417;-89
2023/08/24 06:27:37;;;;;;;42.53;39.53;;;;;;;;;;5077497;28;20771;-89
2023/08/24 06:30:05;;;;;;;46.33;42.83;;;;;;;;;;5096498;28;21084;-89
2023/08/24 06:32:32;;;;;;;44.47;40.93;;;;;;;;;;5096501;28;20502;-89
2023/08/24 06:35:00;;;;;;;44.17;41.07;;;;;;;;;;5096833;28;20433;-88
2023/08/24 06:37:28;;;;;;;42.50;39.60;;;;;;;;;;5096831;28;20445;-89
2023/08/24 06:40:05;;;;;;;42.73;39.83;;;;;;;;;;5095145;28;20437;-90
2023/08/24 06:42:32;;;;;;;42.20;39.30;;;;;;;;;;5096500;28;20500;-89
2023/08/24 06:44:59;;;;;;;40.73;37.83;;;;;;;;;;5096609;28;20437;-89
2023/08/24 06:47:26;;;;;;;43.47;40.27;;;;;;;;;;5096409;28;20452;-88
2023/08/24 06:49:54;;;;;;;41.93;38.90;;;;;;;;;;5095720;28;20439;-89
2023/08/24 06:52:21;;;;;;;40.07;37.37;;;;;;;;;;5096280;28;20444;-89
2023/08/24 06:54:53;;;;;;;40.63;37.90;;;;;;;;;;5095986;28;20484;-89
2023/08/24 06:57:20;;;;;;;39.90;37.10;;;;;;;;;;5096181;28;20883;-89
2023/08/24 06:59:47;;;;;;;39.57;36.87;;;;;;;;;;5095654;28;20479;-89
2023/08/24 07:02:15;;;;;;;39.60;36.70;;;;;;;;;;5096041;28;20472;-87
2023/08/24 07:04:42;;;;;;;40.10;37.37;;;;;;;;;;5096365;28;20480;-88
2023/08/24 07:07:09;;;;;;;37.87;35.47;;;;;;;;;;5096367;28;20451;-89
2023/08/24 07:09:36;;;;;;;37.20;34.83;;;;;;;;;;5096338;28;20453;-87
2023/08/24 07:12:07;;;;;;;37.57;35.03;;;;;;;;;;5095742;28;20492;-88
2023/08/24 07:14:34;;;;;;;37.40;34.87;;;;;;;;;;5096025;28;20483;-88
2023/08/24 07:17:01;;;;;;;37.47;34.73;;;;;;;;;;5096205;28;20801;-88
2023/08/24 07:19:28;;;;;;;35.47;33.07;;;;;;;;;;5096317;28;20809;-89
2023/08/24 07:21:55;;;;;;;35.13;32.57;;;;;;;;;;5095865;28;20419;-88
2023/08/24 07:24:26;;;;;;;32.97;30.77;;;;;;;;;;5097743;28;20435;-88
2023/08/24 07:26:53;;;;;;;31.20;29.10;;;;;;;;;;5096500;28;20415;-88
2023/08/24 07:29:21;;;;;;;29.43;27.63;;;;;;;;;;5096024;28;20423;-88
2023/08/24 07:31:48;;;;;;;31.07;29.17;;;;;;;;;;5095184;28;20463;-89
2023/08/24 07:34:16;;;;;;;30.13;28.23;;;;;;;;;;5096089;28;20531;-88
2023/08/24 07:36:44;;;;;;;31.20;28.87;;;;;;;;;;5095863;28;20467;-88
2023/08/24 07:39:26;;;;;;;28.77;27.00;;;;;;;;;;5094851;28;20457;-89
2023/08/24 07:41:53;;;;;;;29.37;27.37;;;;;;;;;;5094878;28;20916;-88
2023/08/24 07:44:22;;;;;;;29.97;27.97;;;;;;;;;;5095304;28;20423;-90
2023/08/24 07:46:49;;;;;;;28.73;26.73;;;;;;;;;;5094630;28;20449;-89
2023/08/24 07:49:17;;;;;;;28.57;26.50;;;;;;;;;;5095305;28;20453;-89
2023/08/24 07:51:44;;;;;;;28.63;26.73;;;;;;;;;;5094712;28;20456;-89
2023/08/24 07:54:11;;;;;;;28.17;26.47;;;;;;;;;;5094975;28;21023;-89
2023/08/24 07:56:38;;;;;;;28.30;26.23;;;;;;;;;;5095150;28;20437;-88
2023/08/24 07:59:05;;;;;;;27.10;25.50;;;;;;;;;;5095350;28;20464;-89
2023/08/24 08:01:34;;;;;;;26.40;24.80;;;;;;;;;;5094702;28;20464;-88
2023/08/24 08:04:01;;;;;;;27.20;25.60;;;;;;;;;;5094798;28;20450;-88
2023/08/24 08:06:28;;;;;;;29.00;27.00;;;;;;;;;;5095177;28;20412;-89
2023/08/24 08:08:57;;;;;;;29.00;26.87;;;;;;;;;;5095186;28;20416;-88
2023/08/24 08:11:24;;;;;;;27.60;25.90;;;;;;;;;;5094468;28;20911;-88
2023/08/24 08:13:51;;;;;;;27.30;25.60;;;;;;;;;;5093827;28;20459;-88
2023/08/24 08:16:19;;;;;;;27.67;25.97;;;;;;;;;;5095197;28;20431;-88
2023/08/24 08:18:48;;;;;;;27.97;26.17;;;;;;;;;;5094827;28;20473;-89
2023/08/24 08:21:17;;;;;;;26.63;24.93;;;;;;;;;;5093022;28;20420;-89
2023/08/24 08:23:45;;;;;;;27.70;26.10;;;;;;;;;;5094174;28;20454;-88
2023/08/24 08:26:13;;;;;;;27.00;25.07;;;;;;;;;;5094035;28;20897;-88
2023/08/24 08:28:40;;;;;;;25.80;24.37;;;;;;;;;;5092606;28;20523;-88
2023/08/24 08:31:10;;;;;;;27.20;25.23;;;;;;;;;;5093034;28;20423;-88
2023/08/24 08:33:42;;;;;;;25.50;24.10;;;;;;;;;;5094451;28;20483;-88
2023/08/24 08:36:11;;;;;;;27.43;25.60;;;;;;;;;;5094452;28;20421;-88
2023/08/24 08:38:38;;;;;;;25.53;24.03;;;;;;;;;;5094697;28;20427;-88
2023/08/24 08:41:05;;;;;;;27.80;25.80;;;;;;;;;;5094315;28;20768;-88
2023/08/24 08:43:33;;;;;;;27.20;25.57;;;;;;;;;;5093728;28;21015;-89
2023/08/24 08:46:01;;;;;;;25.97;24.17;;;;;;;;;;5085696;28;20451;-88
2023/08/24 08:48:28;;;;;;;26.20;24.10;;;;;;;;;;5083860;28;20442;-89
2023/08/24 08:50:56;;;;;;;27.13;25.00;;;;;;;;;;5080200;28;20411;-88
2023/08/24 08:53:25;;;;;;;25.90;24.30;;;;;;;;;;5094409;28;20484;-89
2023/08/24 08:55:53;;;;;;;25.60;24.00;;;;;;;;;;5096491;28;20453;-86
2023/08/24 08:58:21;;;;;;;25.60;24.00;;;;;;;;;;5094952;28;20439;-87
2023/08/24 09:00:49;;;;;;;25.20;23.60;;;;;;;;;;5094163;28;20457;-81
2023/08/24 09:03:19;;;;;;;24.13;22.63;;;;;;;;;;5094970;28;20473;-88
2023/08/24 09:05:48;;;;;;;25.07;23.57;;;;;;;;;;5098081;28;20421;-82
2023/08/24 09:08:15;;;;;;;25.73;23.83;;;;;;;;;;5098473;28;20445;-80
2023/08/24 09:10:43;;;;;;;24.73;22.70;;;;;;;;;;5095514;28;20469;-81
2023/08/24 09:13:11;;;;;;;26.40;24.60;;;;;;;;;;5097632;28;20839;-81
2023/08/24 09:15:38;;;;;;;26.70;24.63;;;;;;;;;;5096634;28;20489;-82
2023/08/24 09:18:05;;;;;;;26.83;24.23;;;;;;;;;;5097573;28;20423;-81
2023/08/24 09:20:33;;;;;;;25.93;24.13;;;;;;;;;;5086178;28;20427;-82
2023/08/24 09:23:00;;;;;;;25.30;23.50;;;;;;;;;;5084879;28;21244;-87
2023/08/24 09:25:27;;;;;;;33.27;24.53;;;;;;;;;;5077172;28;20459;-87
2023/08/24 09:28:03;;;;;;;26.83;23.83;;;;;;;;;;5098309;28;20467;-87
2023/08/24 09:30:31;;;;;;;25.80;24.03;;;;;;;;;;5098520;28;20407;-88
2023/08/24 09:33:02;;;;;;;24.10;22.30;;;;;;;;;;5098678;28;21018;-87
2023/08/24 09:35:29;;;;;;;24.87;23.27;;;;;;;;;;5099591;28;20444;-88
2023/08/24 09:37:56;;;;;;;25.43;23.63;;;;;;;;;;5098100;28;20464;-88
2023/08/24 09:40:26;;;;;;;25.30;23.50;;;;;;;;;;5098239;28;20431;-88
2023/08/24 09:42:54;;;;;;;25.47;23.80;;;;;;;;;;5099401;28;20447;-85
2023/08/24 09:45:22;;;;;;;25.23;23.37;;;;;;;;;;5102269;28;20437;-86
2023/08/24 09:47:55;;;;;;;26.07;23.77;;;;;;;;;;5103818;28;20457;-86
2023/08/24 09:50:22;;;;;;;26.57;24.53;;;;;;;;;;5098475;28;20925;-88
2023/08/24 09:52:49;;;;;;;24.37;22.77;;;;;;;;;;5098618;28;20457;-89
2023/08/24 09:55:19;;;;;;;26.30;24.73;;;;;;;;;;5098797;28;20470;-89
2023/08/24 09:57:47;;;;;;;27.50;25.60;;;;;;;;;;5098762;28;20468;-88
2023/08/24 10:00:15;;;;;;;26.43;24.73;;;;;;;;;;5088505;28;20461;-88
2023/08/24 10:02:49;;;;;;;26.50;24.70;;;;;;;;;;5086658;28;20466;-88
2023/08/24 10:05:20;;;;;;;27.77;25.27;;;;;;;;;;5078993;28;20433;-87
2023/08/24 10:07:48;;;;;;;26.50;24.90;;;;;;;;;;5079176;28;20424;-87
2023/08/24 10:10:15;;;;;;;25.37;23.77;;;;;;;;;;5079290;28;20457;-86
2023/08/24 10:12:45;;;;;;;26.03;24.47;;;;;;;;;;5078671;28;20449;-88
2023/08/24 10:15:13;;;;;;;25.77;24.07;;;;;;;;;;5077605;28;20889;-88
2023/08/24 10:17:41;;;;;;;25.90;24.27;;;;;;;;;;5077774;28;20437;-87
2023/08/24 10:20:11;;;;;;;26.40;24.13;;;;;;;;;;5077689;28;20506;-88
2023/08/24 10:22:40;;;;;;;26.17;24.57;;;;;;;;;;5078810;28;20469;-88
2023/08/24 10:25:08;;;;;;;27.50;25.20;;;;;;;;;;5076910;28;20485;-88
2023/08/24 10:27:36;;;;;;;26.80;24.90;;;;;;;;;;5077493;28;20820;-88
2023/08/24 10:30:03;;;;;;;26.30;24.57;;;;;;;;;;5084996;28;20936;-88
2023/08/24 10:32:32;;;;;;;26.83;25.00;;;;;;;;;;5076971;28;20433;-87
2023/08/24 10:34:59;;;;;;;26.17;24.57;;;;;;;;;;5077758;28;20445;-87
2023/08/24 10:37:28;;;;;;;24.97;23.10;;;;;;;;;;5076674;28;20413;-87
2023/08/24 10:39:55;;;;;;;25.67;23.87;;;;;;;;;;5076969;28;20420;-88
2023/08/24 10:42:22;;;;;;;24.50;23.00;;;;;;;;;;5076775;28;20467;-87
2023/08/24 10:44:50;;;;;;;23.87;22.40;;;;;;;;;;5079079;28;20905;-88
2023/08/24 10:47:19;;;;;;;24.33;22.83;;;;;;;;;;5077294;28;20480;-87
2023/08/24 10:49:58;;;;;;;25.10;23.50;;;;;;;;;;5078428;28;20449;-85
2023/08/24 10:52:27;;;;;;;25.03;23.47;;;;;;;;;;5076727;28;20458;-82
2023/08/24 10:54:55;;;;;;;25.33;23.67;;;;;;;;;;5075773;28;20555;-80
2023/08/24 10:57:23;;;;;;;25.70;24.10;;;;;;;;;;5075930;28;20424;-80
2023/08/24 11:00:00;;;;;;;25.80;24.10;;;;;;;;;;5075669;28;20695;-81
2023/08/24 11:02:27;;;;;;;25.70;24.10;;;;;;;;;;5075731;28;20478;-81
2023/08/24 11:05:08;;;;;;;26.10;24.00;;;;;;;;;;5075999;28;20461;-80
2023/08/24 11:07:36;;;;;;;25.40;23.73;;;;;;;;;;5076190;28;20920;-82
2023/08/24 11:10:14;;;;;;;25.50;23.90;;;;;;;;;;5074729;28;20822;-80
2023/08/24 11:12:56;;;;;;;26.03;24.30;;;;;;;;;;5075023;28;20561;-81
2023/08/24 11:15:31;;;;;;;25.03;23.27;;;;;;;;;;5075887;28;21312;-80
2023/08/24 11:18:12;;;;;;;22.50;21.10;;;;;;;;;;5075054;28;20457;-81
2023/08/24 11:20:40;;;;;;;24.20;22.60;;;;;;;;;;5074369;28;20408;-81
2023/08/24 11:23:07;;;;;;;24.93;23.03;;;;;;;;;;5075487;28;20444;-79
2023/08/24 11:25:37;;;;;;;23.50;22.10;;;;;;;;;;5074832;28;21165;-80
2023/08/24 11:28:04;;;;;;;22.97;21.63;;;;;;;;;;5075805;28;20448;-81
2023/08/24 11:30:31;;;;;;;25.20;23.70;;;;;;;;;;5074667;28;20933;-80
2023/08/24 11:32:59;;;;;;;24.77;23.17;;;;;;;;;;5075174;28;21348;-79
2023/08/24 11:35:26;;;;;;;24.57;23.07;;;;;;;;;;5075372;28;20810;-79
2023/08/24 11:37:53;;;;;;;25.30;23.60;;;;;;;;;;5075080;28;20440;-78
2023/08/24 11:40:20;;;;;;;23.93;22.43;;;;;;;;;;5074643;28;20431;-79
2023/08/24 11:42:50;;;;;;;23.40;21.90;;;;;;;;;;5075441;28;20551;-80
2023/08/24 11:45:17;;;;;;;23.40;21.90;;;;;;;;;;5075377;28;20941;-80
2023/08/24 11:47:45;;;;;;;24.87;22.93;;;;;;;;;;5075042;28;20424;-79
2023/08/24 11:50:12;;;;;;;24.60;23.00;;;;;;;;;;5073843;28;20477;-79
2023/08/24 11:52:40;;;;;;;24.53;23.03;;;;;;;;;;5073579;28;20912;-80
2023/08/24 11:55:08;;;;;;;23.33;21.93;;;;;;;;;;5074228;28;20476;-79
2023/08/24 11:57:36;;;;;;;23.73;22.23;;;;;;;;;;5073970;28;20449;-80
2023/08/24 12:00:04;;;;;;;24.20;22.70;;;;;;;;;;5074344;28;21540;-80
2023/08/24 12:02:32;;;;;;;24.13;22.63;;;;;;;;;;5073698;28;20964;-79
2023/08/24 12:04:59;;;;;;;23.37;21.97;;;;;;;;;;5079935;28;20453;-80
2023/08/24 12:07:26;;;;;;;23.60;22.20;;;;;;;;;;5084756;28;20452;-79
2023/08/24 12:09:55;;;;;;;23.53;22.13;;;;;;;;;;5093825;28;20457;-80
2023/08/24 12:12:23;;;;;;;23.93;22.53;;;;;;;;;;5094196;28;20488;-80
2023/08/24 12:14:50;;;;;;;23.60;21.87;;;;;;;;;;5094458;28;20473;-80
2023/08/24 12:17:19;;;;;;;23.50;22.10;;;;;;;;;;5093788;28;20510;-79
2023/08/24 12:19:46;;;;;;;23.37;21.87;;;;;;;;;;5093393;28;20457;-79
2023/08/24 12:22:17;;;;;;;23.83;22.33;;;;;;;;;;5094462;28;20461;-80
2023/08/24 12:24:47;;;;;;;23.73;22.07;;;;;;;;;;5095222;28;20571;-79
2023/08/24 12:27:19;;;;;;;24.80;23.10;;;;;;;;;;5095062;28;20444;-81
2023/08/24 12:29:46;;;;;;;24.30;22.77;;;;;;;;;;5078369;28;20509;-79
2023/08/24 12:32:15;;;;;;;23.67;22.10;;;;;;;;;;5074609;28;20816;-80
2023/08/24 12:34:43;;;;;;;24.73;23.17;;;;;;;;;;5074092;28;20450;-81
2023/08/24 12:37:10;;;;;;;25.13;23.53;;;;;;;;;;5073567;28;20477;-81
2023/08/24 12:39:38;;;;;;;24.57;23.07;;;;;;;;;;5073092;28;20473;-80
2023/08/24 12:42:06;;;;;;;24.57;23.10;;;;;;;;;;5072648;28;20461;-80
2023/08/24 12:44:33;;;;;;;24.60;23.00;;;;;;;;;;5087970;28;20812;-84
2023/08/24 12:47:00;;;;;;;24.30;22.80;;;;;;;;;;5101912;28;20433;-85
2023/08/24 12:49:27;;;;;;;23.43;22.03;;;;;;;;;;5109486;28;20440;-86
2023/08/24 12:51:55;;;;;;;24.40;22.60;;;;;;;;;;5099995;27;20414;-82
2023/08/24 12:54:24;;;;;;;25.20;23.50;;;;;;;;;;5094649;28;20502;-80
2023/08/24 12:56:51;;;;;;;25.30;23.60;;;;;;;;;;5093224;28;20488;-81
2023/08/24 12:59:18;;;;;;;26.20;24.50;;;;;;;;;;5094632;28;20433;-87
2023/08/24 13:01:46;;;;;;;25.20;23.70;;;;;;;;;;5096070;28;20457;-84
2023/08/24 13:04:14;;;;;;;24.77;23.23;;;;;;;;;;5092484;28;20471;-81
2023/08/24 13:06:41;;;;;;;24.40;23.00;;;;;;;;;;5097171;28;20453;-83
2023/08/24 13:09:09;;;;;;;24.50;23.00;;;;;;;;;;5095707;28;20451;-89
2023/08/24 13:11:36;;;;;;;24.73;22.90;;;;;;;;;;5094447;28;20466;-83
2023/08/24 13:14:03;;;;;;;25.20;23.60;;;;;;;;;;5095582;28;20477;-83
2023/08/24 13:16:30;;;;;;;25.03;23.33;;;;;;;;;;5095135;28;20488;-80
2023/08/24 13:18:57;;;;;;;25.73;24.17;;;;;;;;;;5094869;28;20471;-81
2023/08/24 13:21:26;;;;;;;25.30;23.87;;;;;;;;;;5094904;28;20472;-81
2023/08/24 13:23:54;;;;;;;24.60;23.10;;;;;;;;;;5095335;28;20493;-81
2023/08/24 13:26:23;;;;;;;24.70;23.10;;;;;;;;;;5094415;28;20843;-83
2023/08/24 13:28:50;;;;;;;24.40;22.90;;;;;;;;;;5095221;28;20484;-83
2023/08/24 13:31:18;;;;;;;25.40;23.80;;;;;;;;;;5093593;28;20444;-81
2023/08/24 13:33:45;;;;;;;25.53;23.90;;;;;;;;;;5095180;28;20465;-85
2023/08/24 13:36:13;;;;;;;26.00;23.97;;;;;;;;;;5097231;28;20493;-88
2023/08/24 13:38:40;;;;;;;25.43;23.83;;;;;;;;;;5095606;28;20484;-79
2023/08/24 13:41:07;;;;;;;26.13;24.33;;;;;;;;;;5092795;28;20444;-80
2023/08/24 13:43:35;;;;;;;25.13;23.53;;;;;;;;;;5092685;28;20467;-80
2023/08/24 13:46:02;;;;;;;24.70;23.00;;;;;;;;;;5092003;28;20407;-81
2023/08/24 13:48:33;;;;;;;25.23;23.37;;;;;;;;;;5090836;28;20778;-80
2023/08/24 13:51:00;;;;;;;25.33;23.83;;;;;;;;;;5091018;28;20432;-79
2023/08/24 13:53:28;;;;;;;24.97;23.40;;;;;;;;;;5093663;28;20451;-86
2023/08/24 13:55:55;;;;;;;25.23;23.37;;;;;;;;;;5091444;28;20480;-82
2023/08/24 13:58:22;;;;;;;24.70;23.10;;;;;;;;;;5092767;28;20424;-81
2023/08/24 14:00:56;;;;;;;23.90;22.50;;;;;;;;;;5092701;28;20460;-81
2023/08/24 14:03:23;;;;;;;25.07;23.37;;;;;;;;;;5093303;28;20468;-81
2023/08/24 14:05:51;;;;;;;24.33;22.80;;;;;;;;;;5093572;28;20436;-82
2023/08/24 14:08:18;;;;;;;24.43;22.63;;;;;;;;;;5093837;28;20452;-81
2023/08/24 14:10:47;;;;;;;25.13;23.50;;;;;;;;;;5092848;28;21226;-81
2023/08/24 14:13:14;;;;;;;24.80;23.10;;;;;;;;;;5095893;28;20523;-81
2023/08/24 14:15:41;;;;;;;24.87;23.00;;;;;;;;;;5098216;28;20488;-81
2023/08/24 14:18:11;;;;;;;24.30;22.73;;;;;;;;;;5098526;28;20440;-82
2023/08/24 14:20:38;;;;;;;25.43;23.80;;;;;;;;;;5098048;28;20434;-82